createdAt,value
2022-08-09T00:00:07.264Z,102043.63
2022-08-09T00:02:34.929Z,102046.31
2022-08-09T00:06:15.933Z,102050.19
2022-08-09T00:07:49.043Z,102049.19
2022-08-09T00:10:21.218Z,102041.00
2022-08-09T00:12:51.699Z,102041.84
2022-08-09T00:15:19.556Z,102044.91
2022-08-09T00:18:04.693Z,102041.22
2022-08-09T00:20:32.576Z,102048.72
2022-08-09T00:23:00.736Z,102036.25
2022-08-09T00:25:51.912Z,102036.56
2022-08-09T00:28:19.302Z,102033.72
2022-08-09T00:30:49.877Z,102035.13
2022-08-09T00:33:17.160Z,102033.28
2022-08-09T00:35:43.854Z,102029.88
2022-08-09T00:38:12.966Z,102029.88
2022-08-09T00:40:40.280Z,102031.03
2022-08-09T00:44:13.328Z,102025.53
2022-08-09T00:46:09.388Z,102025.09
2022-08-09T00:48:37.078Z,102028.53
2022-08-09T00:51:12.047Z,102026.19
2022-08-09T00:53:39.951Z,102025.78
2022-08-09T00:56:09.456Z,102025.25
2022-08-09T00:58:36.248Z,102023.31
2022-08-09T01:01:15.933Z,102021.13
2022-08-09T01:04:05.501Z,102020.72
2022-08-09T01:06:54.301Z,102024.84
2022-08-09T01:09:40.352Z,102024.06
2022-08-09T01:12:12.706Z,102030.41
2022-08-09T01:14:53.185Z,102026.53
2022-08-09T01:17:30.361Z,102024.75
2022-08-09T01:20:04.149Z,102030.41
2022-08-09T01:22:52.026Z,102026.53
2022-08-09T01:25:57.446Z,102022.75
2022-08-09T01:28:25.384Z,102026.38
2022-08-09T01:30:54.921Z,102032.75
2022-08-09T01:33:27.490Z,102028.63
2022-08-09T01:36:03.889Z,102031.00
2022-08-09T01:38:33.031Z,102030.34
2022-08-09T01:41:05.071Z,102033.19
2022-08-09T01:43:41.817Z,102031.50
2022-08-09T01:46:24.967Z,102027.94
2022-08-09T01:49:00.316Z,102029.59
2022-08-09T01:51:42.712Z,102024.25
2022-08-09T01:54:09.951Z,102025.25
2022-08-09T01:56:39.895Z,102026.84
2022-08-09T01:59:16.118Z,102025.25
2022-08-09T02:01:59.013Z,102024.16
2022-08-09T02:04:29.850Z,102024.50
2022-08-09T02:08:36.039Z,102027.44
2022-08-09T02:10:09.385Z,102032.63
2022-08-09T02:12:37.405Z,102038.53
2022-08-09T02:15:07.923Z,102029.88
2022-08-09T02:18:01.601Z,102034.56
2022-08-09T02:20:26.325Z,102028.66
2022-08-09T02:23:11.097Z,102028.75
2022-08-09T02:25:42.059Z,102041.03
2022-08-09T02:28:17.987Z,102035.44
2022-08-09T02:30:48.804Z,102034.84
2022-08-09T02:33:23.088Z,102034.41
2022-08-09T02:36:06.667Z,102025.34
2022-08-09T02:38:55.988Z,102027.94
2022-08-09T02:41:27.346Z,102036.78
2022-08-09T02:44:01.169Z,102030.88
2022-08-09T02:46:38.535Z,102033.06
2022-08-09T02:49:10.015Z,102031.88
2022-08-09T02:51:40.441Z,102040.31
2022-08-09T02:54:09.059Z,102042.75
2022-08-09T02:56:36.445Z,102040.53
2022-08-09T02:59:05.674Z,102043.75
2022-08-09T03:01:43.164Z,102046.75
2022-08-09T03:04:21.550Z,102047.34
2022-08-09T03:06:56.829Z,102045.88
2022-08-09T03:09:27.035Z,102046.38
2022-08-09T03:12:06.750Z,102048.81
2022-08-09T03:14:39.480Z,102047.94
2022-08-09T03:17:07.649Z,102054.03
2022-08-09T03:19:58.471Z,102053.34
2022-08-09T03:22:31.045Z,102055.91
2022-08-09T03:25:06.394Z,102042.88
2022-08-09T03:27:55.364Z,102048.53
2022-08-09T03:30:29.902Z,102055.50
2022-08-09T03:33:05.729Z,102046.53
2022-08-09T03:36:13.260Z,102049.56
2022-08-09T03:38:31.218Z,102049.03
2022-08-09T03:40:58.229Z,102051.13
2022-08-09T03:43:25.061Z,102042.09
2022-08-09T03:46:04.727Z,102048.00
2022-08-09T03:48:50.962Z,102049.22
2022-08-09T03:51:55.509Z,102046.75
2022-08-09T03:54:11.090Z,102052.22
2022-08-09T03:56:38.959Z,102053.91
2022-08-09T03:59:13.865Z,102063.69
2022-08-09T04:01:44.262Z,102057.38
2022-08-09T04:04:14.846Z,102061.56
2022-08-09T04:06:44.094Z,102055.72
2022-08-09T04:09:48.375Z,102049.47
2022-08-09T04:12:30.031Z,102060.28
2022-08-09T04:15:01.668Z,102061.13
2022-08-09T04:17:37.869Z,102060.53
2022-08-09T04:20:07.466Z,102064.81
2022-08-09T04:22:34.240Z,102071.91
2022-08-09T04:25:01.542Z,102072.56
2022-08-09T04:27:29.788Z,102075.56
2022-08-09T04:29:59.223Z,102072.13
2022-08-09T04:32:31.642Z,102076.28
2022-08-09T04:35:03.723Z,102081.44
2022-08-09T04:37:45.827Z,102083.41
2022-08-09T04:40:29.044Z,102084.56
2022-08-09T04:43:00.867Z,102088.81
2022-08-09T04:45:30.382Z,102083.31
2022-08-09T04:48:03.063Z,102086.06
2022-08-09T04:50:37.619Z,102085.41
2022-08-09T04:53:13.044Z,102090.59
2022-08-09T04:55:57.378Z,102092.28
2022-08-09T04:58:25.976Z,102087.88
2022-08-09T05:00:52.793Z,102086.81
2022-08-09T05:03:42.901Z,102087.34
2022-08-09T05:06:08.296Z,102090.63
2022-08-09T05:08:35.600Z,102099.13
2022-08-09T05:11:03.112Z,102096.94
2022-08-09T05:13:33.066Z,102096.44
2022-08-09T05:16:00.501Z,102094.22
2022-08-09T05:18:38.874Z,102104.19
2022-08-09T05:21:23.329Z,102107.59
2022-08-09T05:24:00.608Z,102110.03
2022-08-09T05:26:36.853Z,102104.03
2022-08-09T05:29:17.239Z,102114.75
2022-08-09T05:31:50.445Z,102109.69
2022-08-09T05:34:30.188Z,102113.63
2022-08-09T05:37:01.779Z,102111.91
2022-08-09T05:39:43.576Z,102121.19
2022-08-09T05:42:17.597Z,102108.47
2022-08-09T05:44:50.779Z,102116.56
2022-08-09T05:47:18.389Z,102120.41
2022-08-09T05:50:34.931Z,102117.41
2022-08-09T05:52:31.801Z,102113.00
2022-08-09T05:55:03.198Z,102115.06
2022-08-09T05:57:55.411Z,102116.34
2022-08-09T06:00:28.935Z,102115.47
2022-08-09T06:02:58.829Z,102119.00
2022-08-09T06:05:50.420Z,102124.75
2022-08-09T06:08:13.607Z,102116.81
2022-08-09T06:10:46.463Z,102116.41
2022-08-09T06:13:20.376Z,102122.28
2022-08-09T06:15:51.814Z,102121.31
2022-08-09T06:18:24.938Z,102117.16
2022-08-09T06:20:57.157Z,102123.75
2022-08-09T06:23:58.236Z,102125.88
2022-08-09T06:26:20.482Z,102117.44
2022-08-09T06:29:00.746Z,102128.00
2022-08-09T06:31:40.458Z,102126.09
2022-08-09T06:34:22.546Z,102131.38
2022-08-09T06:36:59.133Z,102129.59
2022-08-09T06:39:48.299Z,102135.91
2022-08-09T06:42:14.508Z,102135.47
2022-08-09T06:44:41.099Z,102131.72
2022-08-09T06:47:08.517Z,102131.00
2022-08-09T06:50:11.270Z,102139.38
2022-08-09T06:52:25.218Z,102140.31
2022-08-09T06:54:52.273Z,102139.13
2022-08-09T06:57:20.833Z,102142.75
2022-08-09T07:00:51.244Z,102139.53
2022-08-09T07:02:54.632Z,102135.13
2022-08-09T07:05:21.268Z,102143.66
2022-08-09T07:08:00.144Z,102149.28
2022-08-09T07:10:31.413Z,102141.59
2022-08-09T07:13:00.677Z,102144.09
2022-08-09T07:15:54.088Z,102144.00
2022-08-09T07:18:32.391Z,102153.94
2022-08-09T07:20:58.905Z,102143.28
2022-08-09T07:23:26.116Z,102145.56
2022-08-09T07:26:02.454Z,102149.94
2022-08-09T07:28:30.751Z,102150.66
2022-08-09T07:31:08.834Z,102153.38
2022-08-09T07:33:52.909Z,102161.63
2022-08-09T07:36:22.491Z,102154.38
2022-08-09T07:38:56.740Z,102152.38
2022-08-09T07:41:26.980Z,102164.28
2022-08-09T07:44:00.027Z,102157.50
2022-08-09T07:46:27.963Z,102169.75
2022-08-09T07:48:59.526Z,102162.88
2022-08-09T07:52:06.122Z,102166.94
2022-08-09T07:54:14.276Z,102165.47
2022-08-09T07:56:49.129Z,102169.06
2022-08-09T07:59:33.749Z,102162.13
2022-08-09T08:02:01.904Z,102168.63
2022-08-09T08:04:32.381Z,102173.47
2022-08-09T08:07:14.972Z,102161.78
2022-08-09T08:09:54.935Z,102158.88
2022-08-09T08:12:42.332Z,102164.44
2022-08-09T08:15:24.306Z,102154.84
2022-08-09T08:17:54.705Z,102160.84
2022-08-09T08:20:29.298Z,102162.47
2022-08-09T08:23:06.290Z,102160.81
2022-08-09T08:25:48.221Z,102161.78
2022-08-09T08:28:32.471Z,102160.69
2022-08-09T08:31:04.878Z,102158.84
2022-08-09T08:33:40.644Z,102152.31
2022-08-09T08:36:22.456Z,102150.78
2022-08-09T08:38:56.251Z,102145.75
2022-08-09T08:41:23.398Z,102147.25
2022-08-09T08:43:51.127Z,102146.56
2022-08-09T08:46:33.413Z,102141.97
2022-08-09T08:49:12.804Z,102141.19
2022-08-09T08:52:00.494Z,102152.38
2022-08-09T08:54:30.728Z,102136.22
2022-08-09T08:56:57.474Z,102145.44
2022-08-09T08:59:24.078Z,102143.94
2022-08-09T09:02:09.472Z,102142.41
2022-08-09T09:04:47.838Z,102143.50
2022-08-09T09:07:21.249Z,102150.41
2022-08-09T09:09:59.613Z,102147.66
2022-08-09T09:12:32.059Z,102158.75
2022-08-09T09:15:02.324Z,102153.47
2022-08-09T09:17:48.369Z,102155.75
2022-08-09T09:20:16.066Z,102153.69
2022-08-09T09:22:55.689Z,102151.94
2022-08-09T09:26:02.451Z,102146.97
2022-08-09T09:29:01.942Z,102152.00
2022-08-09T09:32:05.887Z,102153.03
2022-08-09T09:34:14.616Z,102148.44
2022-08-09T09:36:52.852Z,102150.00
2022-08-09T09:39:22.975Z,102141.97
2022-08-09T09:41:51.333Z,102153.16
2022-08-09T09:44:34.966Z,102161.22
2022-08-09T09:47:09.367Z,102149.28
2022-08-09T09:49:56.294Z,102151.59
2022-08-09T09:52:35.933Z,102165.41
2022-08-09T09:55:16.141Z,102154.69
2022-08-09T09:58:04.373Z,102157.66
2022-08-09T10:00:52.621Z,102149.59
2022-08-09T10:03:58.044Z,102151.22
2022-08-09T10:06:43.040Z,102157.38
2022-08-09T10:09:23.109Z,102144.28
2022-08-09T10:12:14.302Z,102141.53
2022-08-09T10:14:48.929Z,102141.81
2022-08-09T10:17:51.446Z,102145.59
2022-08-09T10:20:27.172Z,102156.09
2022-08-09T10:23:13.831Z,102154.66
2022-08-09T10:26:07.625Z,102150.78
2022-08-09T10:28:33.673Z,102155.63
2022-08-09T10:34:08.544Z,102157.06
2022-08-09T10:36:33.764Z,102156.53
2022-08-09T10:39:02.395Z,102162.78
2022-08-09T10:41:28.935Z,102162.69
2022-08-09T10:43:59.428Z,102156.56
2022-08-09T10:46:55.219Z,102158.53
2022-08-09T10:49:42.401Z,102169.13
2022-08-09T10:52:42.933Z,102153.41
2022-08-09T10:55:25.957Z,102155.41
2022-08-09T10:57:55.886Z,102149.44
2022-08-09T11:00:29.554Z,102147.13
2022-08-09T11:03:14.076Z,102143.31
2022-08-09T11:06:26.109Z,102148.84
2022-08-09T11:08:53.844Z,102143.56
2022-08-09T11:11:23.498Z,102138.59
2022-08-09T11:14:38.305Z,102135.78
2022-08-09T11:17:13.781Z,102134.69
2022-08-09T11:20:11.867Z,102140.16
2022-08-09T11:22:42.606Z,102135.59
2022-08-09T11:25:19.225Z,102143.31
2022-08-09T11:28:04.836Z,102133.88
2022-08-09T11:30:37.650Z,102140.03
2022-08-09T11:33:17.419Z,102142.75
2022-08-09T11:35:49.891Z,102133.53
2022-08-09T11:38:30.993Z,102127.41
2022-08-09T11:41:13.533Z,102135.84
2022-08-09T11:43:43.055Z,102130.47
2022-08-09T11:46:11.876Z,102135.84
2022-08-09T11:48:55.403Z,102134.31
2022-08-09T11:52:59.133Z,102135.50
2022-08-09T11:54:28.484Z,102131.25
2022-08-09T11:57:47.992Z,102130.09
2022-08-09T12:00:28.122Z,102134.69
2022-08-09T12:02:56.498Z,102139.28
2022-08-09T12:05:42.149Z,102127.25
2022-08-09T12:08:21.560Z,102129.69
2022-08-09T12:10:53.611Z,102128.25
2022-08-09T12:14:07.726Z,102145.47
2022-08-09T12:16:37.708Z,102137.88
2022-08-09T12:19:08.602Z,102121.97
2022-08-09T12:21:39.249Z,102130.44
2022-08-09T12:24:24.434Z,102127.66
2022-08-09T12:29:00.150Z,102132.34
2022-08-09T12:29:44.531Z,102134.34
2022-08-09T12:32:26.885Z,102135.59
2022-08-09T12:35:02.900Z,102134.38
2022-08-09T12:37:50.350Z,102128.44
2022-08-09T12:40:23.156Z,102130.81
2022-08-09T12:42:52.034Z,102129.88
2022-08-09T12:45:34.734Z,102126.81
2022-08-09T12:48:20.044Z,102131.06
2022-08-09T12:50:57.007Z,102124.06
2022-08-09T12:53:37.834Z,102115.63
2022-08-09T12:56:43.385Z,102122.66
2022-08-09T12:59:08.844Z,102110.78
2022-08-09T13:01:46.870Z,102118.50
2022-08-09T13:04:36.954Z,102110.88
2022-08-09T13:07:11.206Z,102108.28
2022-08-09T13:09:40.780Z,102110.63
2022-08-09T13:12:09.666Z,102115.00
2022-08-09T13:14:40.975Z,102116.75
2022-08-09T13:17:43.863Z,102112.19
2022-08-09T13:20:13.328Z,102107.53
2022-08-09T13:23:01.989Z,102109.75
2022-08-09T13:25:54.743Z,102111.16
2022-08-09T13:28:34.548Z,102109.84
2022-08-09T13:32:15.826Z,102111.78
2022-08-09T13:33:56.866Z,102112.97
2022-08-09T13:36:40.537Z,102112.41
2022-08-09T13:41:19.030Z,102102.63
2022-08-09T13:42:05.604Z,102118.44
2022-08-09T13:44:42.050Z,102121.69
2022-08-09T13:47:31.347Z,102112.78
2022-08-09T13:50:29.879Z,102114.78
2022-08-09T13:52:57.987Z,102114.13
2022-08-09T13:55:24.570Z,102110.41
2022-08-09T13:57:58.490Z,102110.88
2022-08-09T14:00:29.002Z,102101.63
2022-08-09T14:03:02.958Z,102105.84
2022-08-09T14:05:56.744Z,102116.78
2022-08-09T14:08:29.218Z,102115.63
2022-08-09T14:10:56.641Z,102117.44
2022-08-09T14:14:15.971Z,102112.78
2022-08-09T14:16:14.155Z,102112.41
2022-08-09T14:18:43.250Z,102111.03
2022-08-09T14:21:17.562Z,102109.72
2022-08-09T14:23:55.302Z,102107.81
2022-08-09T14:26:30.154Z,102108.38
2022-08-09T14:30:18.915Z,102121.88
2022-08-09T14:31:58.494Z,102106.06
2022-08-09T14:34:33.002Z,102119.19
2022-08-09T14:37:07.769Z,102119.59
2022-08-09T14:39:47.134Z,102118.06
2022-08-09T14:42:29.120Z,102115.81
2022-08-09T14:45:00.895Z,102117.00
2022-08-09T14:47:45.290Z,102123.94
2022-08-09T14:50:16.296Z,102114.25
2022-08-09T14:52:43.993Z,102118.16
2022-08-09T14:55:20.000Z,102120.81
2022-08-09T14:57:47.375Z,102116.59
2022-08-09T15:00:15.454Z,102114.31
2022-08-09T15:02:41.964Z,102118.56
2022-08-09T15:05:12.820Z,102111.63
2022-08-09T15:07:45.253Z,102116.63
2022-08-09T15:10:14.532Z,102119.31
2022-08-09T15:12:45.073Z,102121.63
2022-08-09T15:15:13.210Z,102124.69
2022-08-09T15:17:42.611Z,102127.00
2022-08-09T15:20:15.270Z,102124.28
2022-08-09T15:24:00.954Z,102124.31
2022-08-09T15:25:52.234Z,102129.28
2022-08-09T15:28:26.353Z,102129.69
2022-08-09T15:31:09.907Z,102123.91
2022-08-09T15:34:17.785Z,102118.16
2022-08-09T15:36:30.151Z,102126.56
2022-08-09T15:38:58.743Z,102119.28
2022-08-09T15:41:31.136Z,102115.06
2022-08-09T15:44:01.730Z,102115.44
2022-08-09T15:46:34.248Z,102109.69
2022-08-09T15:49:21.252Z,102115.78
2022-08-09T15:52:04.113Z,102108.38
2022-08-09T15:54:44.813Z,102111.88
2022-08-09T15:57:13.400Z,102111.88
2022-08-09T15:59:40.308Z,102112.25
2022-08-09T16:02:08.747Z,102118.75
2022-08-09T16:04:40.383Z,102108.31
2022-08-09T16:07:10.824Z,102102.78
2022-08-09T16:09:57.615Z,102104.88
2022-08-09T16:12:23.995Z,102110.00
2022-08-09T16:14:57.302Z,102113.44
2022-08-09T16:17:28.835Z,102115.63
2022-08-09T16:20:04.771Z,102106.41
2022-08-09T16:22:42.470Z,102118.00
2022-08-09T16:25:15.869Z,102111.28
2022-08-09T16:27:42.691Z,102106.31
2022-08-09T16:30:15.345Z,102107.19
2022-08-09T16:33:10.528Z,102097.22
2022-08-09T16:35:57.606Z,102093.41
2022-08-09T16:38:32.785Z,102103.81
2022-08-09T16:41:04.057Z,102102.72
2022-08-09T16:43:34.341Z,102098.91
2022-08-09T16:46:07.851Z,102102.16
2022-08-09T16:48:56.857Z,102100.66
2022-08-09T16:51:23.984Z,102097.34
2022-08-09T16:54:25.409Z,102106.94
2022-08-09T16:56:37.113Z,102099.69
2022-08-09T16:59:15.603Z,102098.09
2022-08-09T17:01:51.081Z,102099.75
2022-08-09T17:04:25.405Z,102106.97
2022-08-09T17:08:41.128Z,102097.28
2022-08-09T17:09:44.905Z,102105.25
2022-08-09T17:12:13.255Z,102106.47
2022-08-09T17:14:39.844Z,102108.19
2022-08-09T17:17:26.294Z,102103.91
2022-08-09T17:20:28.778Z,102110.63
2022-08-09T17:22:50.087Z,102109.31
2022-08-09T17:25:18.379Z,102104.00
2022-08-09T17:27:49.627Z,102111.00
2022-08-09T17:30:28.840Z,102114.28
2022-08-09T17:33:04.618Z,102118.28
2022-08-09T17:35:33.269Z,102110.69
2022-08-09T17:38:12.001Z,102124.81
2022-08-09T17:40:47.279Z,102120.00
2022-08-09T17:43:33.515Z,102111.00
2022-08-09T17:46:03.681Z,102117.78
2022-08-09T17:48:54.366Z,102122.09
2022-08-09T17:51:22.618Z,102126.00
2022-08-09T17:53:53.447Z,102124.75
2022-08-09T17:56:27.953Z,102126.25
2022-08-09T17:58:59.637Z,102126.63
2022-08-09T18:01:58.225Z,102128.97
2022-08-09T18:04:13.079Z,102137.78
2022-08-09T18:06:40.017Z,102128.47
2022-08-09T18:09:09.715Z,102136.56
2022-08-09T18:12:05.925Z,102132.66
2022-08-09T18:14:26.056Z,102135.91
2022-08-09T18:16:53.563Z,102129.94
2022-08-09T18:20:54.434Z,102124.13
2022-08-09T18:22:16.670Z,102126.09
2022-08-09T18:24:47.407Z,102124.91
2022-08-09T18:27:49.176Z,102121.50
2022-08-09T18:30:41.056Z,102130.59
2022-08-09T18:32:54.262Z,102127.81
2022-08-09T18:35:56.341Z,102131.09
2022-08-09T18:38:09.874Z,102133.16
2022-08-09T18:40:38.625Z,102137.69
2022-08-09T18:43:05.117Z,102138.06
2022-08-09T18:46:50.786Z,102143.72
2022-08-09T18:48:18.751Z,102141.84
2022-08-09T18:50:46.925Z,102135.41
2022-08-09T18:53:16.552Z,102136.53
2022-08-09T18:55:56.407Z,102134.75
2022-08-09T18:58:32.115Z,102146.09
2022-08-09T19:01:00.459Z,102156.31
2022-08-09T19:03:27.290Z,102149.72
2022-08-09T19:06:03.704Z,102154.09
2022-08-09T19:08:31.551Z,102147.31
2022-08-09T19:10:58.268Z,102151.38
2022-08-09T19:13:49.675Z,102137.59
2022-08-09T19:16:13.169Z,102141.44
2022-08-09T19:18:45.478Z,102139.25
2022-08-09T19:21:12.786Z,102141.88
2022-08-09T19:24:35.917Z,102145.66
2022-08-09T19:26:31.177Z,102153.81
2022-08-09T19:29:01.757Z,102147.53
2022-08-09T19:31:30.269Z,102143.72
2022-08-09T19:34:00.075Z,102157.56
2022-08-09T19:36:30.901Z,102154.00
2022-08-09T19:38:59.259Z,102152.50
2022-08-09T19:41:33.497Z,102152.06
2022-08-09T19:44:03.308Z,102156.25
2022-08-09T19:46:34.924Z,102150.47
2022-08-09T19:50:06.932Z,102152.16
2022-08-09T19:51:51.729Z,102143.72
2022-08-09T19:54:24.990Z,102140.84
2022-08-09T19:56:52.045Z,102141.38
2022-08-09T19:59:58.932Z,102148.78
2022-08-09T20:03:24.099Z,102149.06
2022-08-09T20:04:55.558Z,102144.91
2022-08-09T20:07:24.565Z,102148.09
2022-08-09T20:09:51.078Z,102145.69
2022-08-09T20:12:30.065Z,102155.66
2022-08-09T20:15:14.045Z,102148.34
2022-08-09T20:17:54.444Z,102154.81
2022-08-09T20:20:22.115Z,102146.81
2022-08-09T20:22:51.267Z,102148.19
2022-08-09T20:25:23.086Z,102151.72
2022-08-09T20:27:49.831Z,102154.03
2022-08-09T20:30:17.904Z,102146.50
2022-08-09T20:32:52.517Z,102153.09
2022-08-09T20:35:21.282Z,102148.88
2022-08-09T20:38:22.382Z,102150.69
2022-08-09T20:40:35.901Z,102147.16
2022-08-09T20:43:11.961Z,102157.16
2022-08-09T20:46:01.974Z,102159.19
2022-08-09T20:48:31.851Z,102152.91
2022-08-09T20:51:00.100Z,102152.75
2022-08-09T20:53:37.567Z,102154.63
2022-08-09T20:56:08.908Z,102147.53
2022-08-09T20:58:37.928Z,102143.88
2022-08-09T21:01:33.161Z,102146.78
2022-08-09T21:04:08.146Z,102151.94
2022-08-09T21:06:41.462Z,102157.28
2022-08-09T21:09:14.112Z,102157.00
2022-08-09T21:14:27.498Z,102144.25
2022-08-09T21:16:57.888Z,102148.31
2022-08-09T21:20:18.049Z,102156.72
2022-08-09T21:22:35.472Z,102149.75
2022-08-09T21:25:20.855Z,102138.38
2022-08-09T21:28:01.434Z,102141.28
2022-08-09T21:30:28.155Z,102149.84
2022-08-09T21:32:54.746Z,102143.41
2022-08-09T21:35:23.734Z,102152.34
2022-08-09T21:37:58.692Z,102156.44
2022-08-09T21:40:30.935Z,102153.78
2022-08-09T21:43:00.031Z,102158.63
2022-08-09T21:45:28.025Z,102159.88
2022-08-09T21:47:56.018Z,102155.66
2022-08-09T21:50:36.019Z,102157.22
2022-08-09T21:53:23.815Z,102154.81
2022-08-09T21:55:54.332Z,102156.56
2022-08-09T21:58:21.064Z,102158.25
2022-08-09T22:00:55.837Z,102156.06
2022-08-09T22:03:25.545Z,102159.59
2022-08-09T22:05:53.215Z,102162.56
2022-08-09T22:08:23.013Z,102161.00
2022-08-09T22:11:00.602Z,102160.25
2022-08-09T22:13:43.297Z,102166.88
2022-08-09T22:16:10.647Z,102159.88
2022-08-09T22:18:53.197Z,102160.66
2022-08-09T22:21:27.495Z,102155.03
2022-08-09T22:24:17.297Z,102157.50
2022-08-09T22:26:52.230Z,102161.78
2022-08-09T22:29:24.121Z,102156.34
2022-08-09T22:31:57.035Z,102154.47
2022-08-09T22:34:27.547Z,102152.59
2022-08-09T22:36:55.304Z,102146.06
2022-08-09T22:39:55.979Z,102154.91
2022-08-09T22:42:21.548Z,102161.47
2022-08-09T22:45:00.547Z,102160.56
2022-08-09T22:48:11.602Z,102157.91
2022-08-09T22:50:26.915Z,102159.22
2022-08-09T22:52:57.985Z,102159.53
2022-08-09T22:55:39.370Z,102152.59
2022-08-09T22:58:30.568Z,102165.06
2022-08-09T23:01:02.498Z,102165.63
2022-08-09T23:04:02.230Z,102156.66
2022-08-09T23:06:35.734Z,102163.31
2022-08-09T23:09:06.776Z,102159.34
2022-08-09T23:11:33.490Z,102159.88
2022-08-09T23:14:00.040Z,102160.34
2022-08-09T23:16:26.582Z,102154.78
2022-08-09T23:18:53.060Z,102158.66
2022-08-09T23:21:25.929Z,102159.19
2022-08-09T23:23:58.840Z,102161.84
2022-08-09T23:26:33.472Z,102162.84
2022-08-09T23:29:00.085Z,102160.50
2022-08-09T23:31:29.094Z,102157.63
2022-08-09T23:33:55.608Z,102162.38
2022-08-09T23:36:22.150Z,102168.78
2022-08-09T23:38:50.988Z,102158.16
2022-08-09T23:41:27.738Z,102161.28
2022-08-09T23:43:59.671Z,102150.50
2022-08-09T23:46:27.217Z,102164.16
2022-08-09T23:48:53.868Z,102166.31
2022-08-09T23:51:20.481Z,102171.56
2022-08-09T23:53:47.339Z,102165.22
2022-08-09T23:56:17.067Z,102170.81
2022-08-09T23:59:05.898Z,102164.41
